Time;durP1;ratioP1;P1;durP2;ratioP2;P2;SDS_P1;SDS_P2;PMS_P1;PMS_P2;Temp;Humidity;BMP_temperature;BMP_pressure;BME280_temperature;BME280_humidity;BME280_pressure;Samples;Min_cycle;Max_cycle;Signal;HPM_P1;HPM_P2
2021/03/13 00:00:38;;;;;;;16.23;4.03;;;8.50;86.00;;;;;;5012933;28;20026;-75
2021/03/13 00:03:04;;;;;;;11.15;3.53;;;8.50;85.90;;;;;;5012192;28;20029;-75
2021/03/13 00:05:36;;;;;;;11.07;3.15;;;8.50;86.00;;;;;;5013983;28;20110;-73
2021/03/13 00:08:02;;;;;;;13.02;3.53;;;8.50;85.80;;;;;;5029596;28;20029;-75
2021/03/13 00:10:28;;;;;;;11.52;3.90;;;8.50;85.80;;;;;;5013023;28;20410;-74
2021/03/13 00:12:54;;;;;;;11.65;3.38;;;8.50;85.80;;;;;;5012482;28;20029;-73
2021/03/13 00:15:19;;;;;;;17.40;3.55;;;8.50;85.90;;;;;;5013468;28;20070;-73
2021/03/13 00:17:47;;;;;;;14.50;2.92;;;8.50;85.90;;;;;;5013264;28;20490;-73
2021/03/13 00:20:16;;;;;;;9.60;3.03;;;8.50;85.90;;;;;;5013564;28;20026;-72
2021/03/13 00:22:42;;;;;;;11.80;3.45;;;8.50;85.90;;;;;;4995422;28;20056;-73
2021/03/13 00:25:09;;;;;;;13.40;3.85;;;8.40;86.00;;;;;;5013625;28;20474;-73
2021/03/13 00:27:47;;;;;;;13.25;3.08;;;8.50;86.20;;;;;;5012498;28;20061;-73
2021/03/13 00:30:17;;;;;;;14.20;2.95;;;8.50;86.30;;;;;;5012731;28;20022;-73
2021/03/13 00:32:45;;;;;;;11.68;2.83;;;8.50;86.30;;;;;;5013301;28;20116;-73
2021/03/13 00:35:11;;;;;;;13.38;3.60;;;8.40;86.90;;;;;;5012949;28;20116;-74
2021/03/13 00:37:37;;;;;;;13.82;3.40;;;8.40;86.40;;;;;;5011667;28;20049;-73
2021/03/13 00:40:07;;;;;;;9.95;3.38;;;8.40;86.60;;;;;;5012187;28;20072;-74
2021/03/13 00:42:33;;;;;;;15.38;3.95;;;8.30;86.80;;;;;;5013299;28;20026;-74
2021/03/13 00:44:59;;;;;;;12.25;3.20;;;8.30;87.10;;;;;;5011668;28;20018;-75
2021/03/13 00:47:25;;;;;;;14.80;3.22;;;8.20;87.20;;;;;;5013134;28;20054;-74
2021/03/13 00:49:50;;;;;;;13.38;3.00;;;8.30;87.30;;;;;;5012141;28;20025;-73
2021/03/13 00:52:16;;;;;;;15.35;3.15;;;8.30;87.40;;;;;;5012241;28;20026;-74
2021/03/13 00:54:42;;;;;;;12.48;3.20;;;8.30;87.30;;;;;;5013085;28;20100;-75
2021/03/13 00:57:07;;;;;;;11.05;2.67;;;8.20;87.30;;;;;;5013371;28;20088;-74
2021/03/13 00:59:33;;;;;;;17.27;3.85;;;8.30;87.50;;;;;;5012592;28;20032;-76
2021/03/13 01:01:58;;;;;;;13.95;3.10;;;8.30;87.50;;;;;;5012100;28;20471;-76
2021/03/13 01:04:24;;;;;;;11.70;3.00;;;8.30;87.50;;;;;;5012834;28;20077;-74
2021/03/13 01:06:50;;;;;;;12.38;3.42;;;8.30;87.50;;;;;;5012301;28;20014;-74
2021/03/13 01:09:16;;;;;;;8.77;2.38;;;8.30;87.50;;;;;;5011238;28;20030;-74
2021/03/13 01:11:42;;;;;;;17.83;3.85;;;8.30;87.50;;;;;;5012779;28;20120;-72
2021/03/13 01:14:08;;;;;;;11.65;3.13;;;8.30;87.70;;;;;;5012263;28;20081;-74
2021/03/13 01:16:34;;;;;;;13.30;3.00;;;8.30;87.70;;;;;;5012849;28;20257;-74
2021/03/13 01:18:59;;;;;;;11.35;3.38;;;8.30;87.70;;;;;;5012352;28;20138;-74
2021/03/13 01:21:25;;;;;;;6.65;2.50;;;8.30;87.80;;;;;;5011185;28;20057;-75
2021/03/13 01:23:50;;;;;;;10.57;2.80;;;8.40;88.10;;;;;;5011360;28;20041;-74
2021/03/13 01:26:16;;;;;;;10.65;3.03;;;8.30;88.30;;;;;;5011679;28;20025;-74
2021/03/13 01:28:41;;;;;;;11.82;2.63;;;8.40;88.90;;;;;;5011705;28;20490;-73
2021/03/13 01:31:07;;;;;;;7.45;3.47;;;8.30;90.00;;;;;;5012799;28;20037;-74
2021/03/13 01:33:33;;;;;;;9.38;2.20;;;8.30;89.60;;;;;;5010360;28;20030;-74
2021/03/13 01:35:58;;;;;;;11.73;2.97;;;8.30;90.00;;;;;;5012911;28;20390;-73
2021/03/13 01:38:24;;;;;;;9.35;2.88;;;8.20;90.40;;;;;;5012288;28;20030;-73
2021/03/13 01:40:49;;;;;;;9.38;2.80;;;8.20;90.70;;;;;;5011782;28;20010;-72
2021/03/13 01:43:15;;;;;;;8.18;2.65;;;8.10;90.90;;;;;;5012056;28;20025;-73
2021/03/13 01:45:40;;;;;;;11.52;2.70;;;8.00;91.10;;;;;;5012492;28;20096;-73
2021/03/13 01:48:07;;;;;;;14.75;3.50;;;8.00;91.30;;;;;;5009869;28;20017;-72
2021/03/13 01:50:33;;;;;;;11.80;2.95;;;8.00;91.40;;;;;;5012290;28;20064;-73
2021/03/13 01:52:58;;;;;;;11.68;3.63;;;8.00;91.70;;;;;;5012013;28;20494;-73
2021/03/13 01:55:24;;;;;;;11.48;3.00;;;8.00;91.90;;;;;;5010058;28;20076;-73
2021/03/13 01:57:50;;;;;;;15.35;2.90;;;8.00;91.90;;;;;;5011004;28;20034;-73
2021/03/13 02:00:22;;;;;;;11.88;3.28;;;8.10;92.00;;;;;;5011189;28;20478;-73
2021/03/13 02:02:47;;;;;;;;;;;8.00;92.10;;;;;;5027469;28;20037;-72
2021/03/13 02:05:21;;;;;;;9.18;2.85;;;8.00;92.20;;;;;;5012447;28;19906;-74
2021/03/13 02:07:56;;;;;;;13.52;6.05;;;7.90;92.20;;;;;;5027486;28;20077;-74
2021/03/13 02:10:21;;;;;;;10.65;3.42;;;7.90;92.50;;;;;;5011269;28;20386;-73
2021/03/13 02:13:07;;;;;;;11.07;3.13;;;7.90;92.60;;;;;;5012230;28;20103;-73
2021/03/13 02:15:55;;;;;;;9.60;3.13;;;7.80;92.70;;;;;;5011425;28;20049;-72
2021/03/13 02:18:38;;;;;;;10.43;2.78;;;7.80;92.80;;;;;;5011946;28;20041;-72
2021/03/13 02:21:14;;;;;;;6.70;2.85;;;7.80;92.80;;;;;;5012326;28;20022;-72
2021/03/13 02:24:03;;;;;;;7.40;2.88;;;7.90;93.00;;;;;;5011660;28;20025;-72
2021/03/13 02:27:00;;;;;;;5.97;2.70;;;7.90;93.10;;;;;;5011890;28;20536;-72
2021/03/13 02:29:36;;;;;;;7.95;2.33;;;7.90;93.10;;;;;;5009915;28;20049;-72
2021/03/13 02:32:25;;;;;;;6.30;2.60;;;7.90;93.10;;;;;;5011914;28;20037;-73
2021/03/13 02:34:57;;;;;;;6.25;2.45;;;7.90;93.10;;;;;;5001687;28;20033;-73
2021/03/13 02:37:27;;;;;;;9.70;3.03;;;7.90;93.20;;;;;;5011114;28;20474;-72
2021/03/13 02:39:55;;;;;;;8.13;2.63;;;7.80;93.30;;;;;;5012076;28;20037;-73
2021/03/13 02:42:22;;;;;;;10.20;2.75;;;7.80;93.40;;;;;;5026824;28;20026;-73
2021/03/13 02:44:49;;;;;;;5.97;2.75;;;7.80;93.40;;;;;;5026709;28;20112;-73
2021/03/13 02:47:16;;;;;;;6.18;2.72;;;7.80;93.50;;;;;;5011816;28;20076;-73
2021/03/13 02:49:45;;;;;;;6.20;2.90;;;7.70;93.50;;;;;;5011918;28;20112;-72
2021/03/13 02:52:11;;;;;;;7.05;2.67;;;7.70;93.60;;;;;;5009433;28;20030;-73
2021/03/13 02:54:43;;;;;;;5.90;2.45;;;7.70;93.70;;;;;;5011967;28;20048;-71
2021/03/13 02:57:13;;;;;;;6.60;2.80;;;7.80;93.70;;;;;;5010375;28;20113;-71
2021/03/13 02:59:40;;;;;;;3.83;2.33;;;7.80;93.80;;;;;;5013793;28;20437;-72
2021/03/13 03:02:07;;;;;;;3.55;2.70;;;7.80;93.80;;;;;;5014143;28;20026;-73
2021/03/13 03:04:36;;;;;;;7.07;2.35;;;7.70;93.80;;;;;;5014681;28;20028;-73
2021/03/13 03:07:02;;;;;;;4.03;2.40;;;7.80;93.80;;;;;;5013930;28;20022;-73
2021/03/13 03:09:29;;;;;;;5.72;2.72;;;7.80;93.80;;;;;;5030160;28;20474;-73
2021/03/13 03:11:55;;;;;;;5.22;2.47;;;7.80;93.90;;;;;;5013035;28;20030;-74
2021/03/13 03:14:22;;;;;;;5.47;2.90;;;7.80;94.00;;;;;;5014914;28;20079;-73
2021/03/13 03:16:56;;;;;;;7.50;2.40;;;7.80;94.00;;;;;;5015057;28;20051;-74
2021/03/13 03:19:23;;;;;;;5.75;2.63;;;7.80;94.00;;;;;;5012863;28;20052;-73
2021/03/13 03:21:49;;;;;;;5.75;3.10;;;7.80;94.00;;;;;;5014942;28;20053;-74
2021/03/13 03:24:15;;;;;;;5.45;2.80;;;7.80;94.00;;;;;;5014805;28;20064;-73
2021/03/13 03:26:40;;;;;;;8.15;3.00;;;7.80;94.00;;;;;;5014546;28;20030;-73
2021/03/13 03:29:08;;;;;;;7.00;3.00;;;7.80;94.00;;;;;;5014888;28;20594;-72
2021/03/13 03:31:34;;;;;;;6.32;3.45;;;7.80;94.00;;;;;;5014813;28;20053;-74
2021/03/13 03:33:59;;;;;;;7.28;2.97;;;7.90;94.10;;;;;;5014514;28;20073;-72
2021/03/13 03:36:25;;;;;;;26.67;11.52;;;7.90;94.10;;;;;;5013047;28;20049;-73
2021/03/13 03:38:54;;;;;;;9.52;2.83;;;7.90;94.00;;;;;;5014786;28;20055;-73
2021/03/13 03:41:20;;;;;;;6.63;2.63;;;7.90;94.20;;;;;;5013680;28;20026;-73
2021/03/13 03:43:49;;;;;;;11.90;3.40;;;7.80;94.10;;;;;;5013197;28;20018;-73
2021/03/13 03:46:16;;;;;;;7.72;2.75;;;7.80;94.20;;;;;;5012793;28;20026;-73
2021/03/13 03:48:43;;;;;;;6.70;2.40;;;7.80;94.20;;;;;;5013838;28;20104;-73
2021/03/13 03:51:12;;;;;;;5.25;2.20;;;7.80;94.20;;;;;;5014145;28;20022;-71
2021/03/13 03:53:40;;;;;;;7.13;2.60;;;7.80;94.30;;;;;;5013579;28;20034;-73
2021/03/13 03:56:08;;;;;;;8.38;2.53;;;7.80;94.30;;;;;;5014462;28;20022;-73
2021/03/13 03:58:41;;;;;;;8.00;2.35;;;7.80;94.30;;;;;;5014335;28;20060;-72
2021/03/13 04:01:08;;;;;;;5.95;2.58;;;7.90;94.40;;;;;;5013888;28;20022;-73
2021/03/13 04:03:44;;;;;;;5.63;2.60;;;7.90;94.30;;;;;;5014083;28;20030;-73
2021/03/13 04:06:12;;;;;;;6.18;2.17;;;7.80;94.40;;;;;;5014003;28;20049;-73
2021/03/13 04:08:40;;;;;;;4.97;2.20;;;7.90;94.40;;;;;;5013332;28;20393;-73
2021/03/13 04:11:09;;;;;;;5.38;2.42;;;7.80;94.40;;;;;;5013297;28;20048;-73
2021/03/13 04:13:37;;;;;;;5.13;2.40;;;7.80;94.40;;;;;;5014009;28;20046;-73
2021/03/13 04:16:03;;;;;;;5.45;2.05;;;7.90;94.50;;;;;;5012208;28;20092;-74
2021/03/13 04:18:29;;;;;;;9.02;2.67;;;7.90;94.50;;;;;;5013562;28;20498;-72
2021/03/13 04:20:56;;;;;;;4.85;2.22;;;7.90;94.50;;;;;;5013814;28;20022;-72
2021/03/13 04:23:23;;;;;;;4.90;2.08;;;7.80;94.50;;;;;;5012863;28;20029;-72
2021/03/13 04:25:53;;;;;;;7.15;2.83;;;7.80;94.50;;;;;;5013821;28;20105;-72
2021/03/13 04:28:19;;;;;;;9.52;2.78;;;7.80;94.60;;;;;;5013483;28;20101;-72
2021/03/13 04:30:46;;;;;;;6.47;2.70;;;7.80;94.60;;;;;;5013118;28;20474;-72
2021/03/13 04:33:12;;;;;;;6.03;3.85;;;7.90;94.70;;;;;;5011689;28;20557;-72
2021/03/13 04:35:39;;;;;;;6.47;2.40;;;7.80;94.70;;;;;;5012311;28;20026;-72
2021/03/13 04:38:05;;;;;;;4.55;2.00;;;7.90;94.70;;;;;;5013013;28;20032;-73
2021/03/13 04:40:32;;;;;;;6.43;2.20;;;7.80;94.70;;;;;;5013245;28;20029;-73
2021/03/13 04:42:58;;;;;;;13.90;11.10;;;7.90;94.70;;;;;;5012790;28;20026;-72
2021/03/13 04:45:24;;;;;;;5.00;1.85;;;7.90;94.60;;;;;;5013241;28;20036;-72
2021/03/13 04:47:50;;;;;;;8.25;2.63;;;7.90;94.70;;;;;;5012073;28;20117;-72
2021/03/13 04:50:21;;;;;;;4.85;2.30;;;7.90;94.60;;;;;;5010576;28;20025;-73
2021/03/13 04:52:48;;;;;;;5.57;2.00;;;7.90;94.60;;;;;;5013227;28;20487;-73
2021/03/13 04:55:14;;;;;;;5.15;2.33;;;7.90;94.60;;;;;;5011086;28;20101;-72
2021/03/13 04:57:40;;;;;;;5.35;2.00;;;7.90;94.70;;;;;;5011911;28;20125;-72
2021/03/13 05:00:11;;;;;;;6.85;2.00;;;7.90;94.70;;;;;;5013282;28;20029;-72
2021/03/13 05:02:37;;;;;;;;;;;7.90;94.70;;;;;;5012976;28;20107;-73
2021/03/13 05:05:04;;;;;;;5.20;2.30;;;8.00;94.80;;;;;;5013231;28;20365;-72
2021/03/13 05:07:29;;;;;;;7.40;2.17;;;8.00;94.60;;;;;;5027941;28;20076;-73
2021/03/13 05:09:55;;;;;;;4.50;1.95;;;8.00;94.60;;;;;;5012432;28;20025;-73
2021/03/13 05:12:20;;;;;;;7.97;2.63;;;8.00;94.60;;;;;;5011188;28;20414;-73
2021/03/13 05:14:46;;;;;;;9.18;3.00;;;8.00;94.60;;;;;;5012899;28;20030;-72
2021/03/13 05:17:12;;;;;;;6.55;2.00;;;8.00;94.60;;;;;;5010551;28;20050;-72
2021/03/13 05:19:38;;;;;;;5.32;2.35;;;8.10;94.60;;;;;;5012799;28;20532;-72
2021/03/13 05:22:03;;;;;;;2.53;1.85;;;8.10;94.60;;;;;;5011602;28;20056;-72
2021/03/13 05:24:29;;;;;;;5.78;2.13;;;8.10;94.60;;;;;;5011912;28;20084;-72
2021/03/13 05:26:55;;;;;;;6.00;2.15;;;8.10;94.60;;;;;;5011473;28;20022;-73
2021/03/13 05:29:20;;;;;;;4.85;2.45;;;8.10;94.60;;;;;;5012415;28;20044;-73
2021/03/13 05:31:46;;;;;;;7.68;4.05;;;8.10;94.60;;;;;;5012220;28;20037;-73
2021/03/13 05:34:11;;;;;;;32.70;17.23;;;8.10;94.70;;;;;;5012342;28;20435;-73
2021/03/13 05:36:37;;;;;;;5.50;2.60;;;8.10;94.70;;;;;;5012767;28;20037;-72
2021/03/13 05:39:04;;;;;;;7.15;3.83;;;8.10;94.80;;;;;;5012136;28;20017;-72
2021/03/13 05:41:30;;;;;;;8.30;2.10;;;8.10;94.90;;;;;;5012034;28;20421;-73
2021/03/13 05:44:00;;;;;;;5.70;2.25;;;8.10;95.00;;;;;;5011342;28;20041;-73
2021/03/13 05:46:34;;;;;;;3.17;1.75;;;8.00;95.00;;;;;;5011977;28;20030;-73
2021/03/13 05:49:02;;;;;;;6.07;2.00;;;8.00;95.00;;;;;;5011350;28;20025;-73
2021/03/13 05:51:30;;;;;;;4.63;2.28;;;8.00;95.20;;;;;;5010054;28;20133;-73
2021/03/13 05:53:55;;;;;;;21.15;9.73;;;8.00;95.20;;;;;;5012455;28;20065;-72
2021/03/13 05:56:21;;;;;;;3.33;2.65;;;8.00;95.20;;;;;;5012039;28;20431;-73
2021/03/13 05:58:47;;;;;;;9.60;6.35;;;8.00;95.20;;;;;;5011463;28;20034;-72
2021/03/13 06:01:12;;;;;;;5.60;3.63;;;8.10;95.20;;;;;;5010721;28;20029;-73
2021/03/13 06:03:38;;;;;;;3.38;2.03;;;8.00;95.20;;;;;;5012328;28;20359;-73
2021/03/13 06:06:07;;;;;;;7.97;5.43;;;8.10;95.20;;;;;;5011810;28;20352;-73
2021/03/13 06:08:35;;;;;;;3.80;1.98;;;8.10;95.30;;;;;;5012175;28;20068;-72
2021/03/13 06:11:00;;;;;;;4.32;1.90;;;8.10;95.30;;;;;;5011012;28;20064;-73
2021/03/13 06:13:26;;;;;;;6.00;4.70;;;8.20;95.30;;;;;;5011252;28;20065;-72
2021/03/13 06:15:54;;;;;;;5.88;2.22;;;8.10;95.30;;;;;;5010681;28;20046;-72
2021/03/13 06:18:20;;;;;;;4.72;1.95;;;8.20;95.40;;;;;;5010707;28;20386;-73
2021/03/13 06:20:45;;;;;;;3.80;1.70;;;8.10;95.50;;;;;;5009963;28;20022;-72
2021/03/13 06:23:15;;;;;;;6.05;4.93;;;8.20;95.50;;;;;;5010555;28;20018;-73
2021/03/13 06:25:42;;;;;;;73.80;25.08;;;8.10;95.10;;;;;;5012266;28;20077;-72
2021/03/13 06:28:17;;;;;;;54.67;29.95;;;7.90;94.60;;;;;;5011527;28;20026;-72
2021/03/13 06:30:48;;;;;;;6.50;5.10;;;7.70;93.70;;;;;;5011990;28;20022;-72
2021/03/13 06:33:28;;;;;;;3.78;1.90;;;7.40;92.80;;;;;;5012353;28;20458;-72
2021/03/13 06:36:00;;;;;;;10.27;3.92;;;7.30;93.20;;;;;;5015319;28;20045;-72
2021/03/13 06:38:26;;;;;;;;;;;7.20;93.40;;;;;;5016074;28;20026;-72
2021/03/13 06:40:54;;;;;;;1.55;0.90;;;7.20;93.50;;;;;;5015091;28;19909;-72
2021/03/13 06:43:23;;;;;;;1.42;1.00;;;7.20;93.50;;;;;;5015171;28;20033;-73
2021/03/13 06:45:57;;;;;;;7.00;1.27;;;7.30;93.80;;;;;;5015655;28;20033;-72
2021/03/13 06:48:34;;;;;;;5.50;2.00;;;7.30;93.80;;;;;;5014625;28;20033;-73
2021/03/13 06:51:20;;;;;;;5.65;2.00;;;7.40;94.10;;;;;;5015599;28;20032;-73
2021/03/13 06:54:04;;;;;;;3.67;1.23;;;7.50;94.30;;;;;;5015373;28;20398;-73
2021/03/13 06:56:32;;;;;;;9.90;6.57;;;7.60;94.30;;;;;;5014475;28;20022;-73
2021/03/13 06:58:58;;;;;;;11.48;8.60;;;7.60;94.30;;;;;;5015361;28;20125;-73
2021/03/13 07:01:31;;;;;;;3.33;1.25;;;7.60;94.10;;;;;;5015195;28;20067;-73
2021/03/13 07:03:58;;;;;;;2.90;1.98;;;7.60;93.70;;;;;;5013385;28;20033;-73
2021/03/13 07:06:24;;;;;;;3.83;1.15;;;7.70;93.60;;;;;;5030252;28;20041;-73
2021/03/13 07:08:54;;;;;;;5.03;3.08;;;7.70;93.20;;;;;;5014644;28;20014;-73
2021/03/13 07:11:24;;;;;;;9.75;5.72;;;7.70;92.00;;;;;;5014983;28;20390;-72
2021/03/13 07:13:55;;;;;;;4.25;1.20;;;7.70;91.60;;;;;;5013718;28;20176;-73
2021/03/13 07:16:32;;;;;;;3.13;1.30;;;7.70;91.10;;;;;;5029069;28;20061;-72
2021/03/13 07:19:01;;;;;;;5.38;2.03;;;7.70;90.60;;;;;;5014839;28;20523;-74
2021/03/13 07:21:29;;;;;;;11.55;7.97;;;7.70;90.60;;;;;;5029977;28;20022;-74
2021/03/13 07:24:01;;;;;;;8.38;4.53;;;7.70;90.50;;;;;;5029428;28;20509;-74
2021/03/13 07:26:38;;;;;;;7.30;2.55;;;7.70;90.60;;;;;;5014607;28;20029;-73
2021/03/13 07:29:06;;;;;;;7.97;1.73;;;7.80;90.50;;;;;;5011926;28;20088;-73
2021/03/13 07:31:45;;;;;;;5.47;1.40;;;7.80;90.40;;;;;;4992329;28;20048;-71
2021/03/13 07:34:19;;;;;;;7.88;1.30;;;7.80;90.10;;;;;;4994712;28;20077;-72
2021/03/13 07:36:52;;;;;;;4.97;1.48;;;7.80;90.30;;;;;;4979218;28;20022;-71
2021/03/13 07:39:22;;;;;;;5.88;1.80;;;7.80;90.10;;;;;;4975360;28;20031;-74
2021/03/13 07:41:58;;;;;;;8.77;3.40;;;7.80;90.00;;;;;;4975607;28;20023;-74
2021/03/13 07:44:25;;;;;;;11.95;3.15;;;7.80;90.00;;;;;;4973946;28;20053;-73
2021/03/13 07:46:51;;;;;;;8.07;2.00;;;7.80;90.00;;;;;;4974991;28;20019;-73
2021/03/13 07:49:17;;;;;;;11.18;3.88;;;7.90;89.80;;;;;;4993773;28;20104;-73
2021/03/13 07:51:44;;;;;;;17.80;4.65;;;8.00;88.80;;;;;;4994205;28;20023;-73
2021/03/13 07:54:10;;;;;;;46.60;16.40;;;8.00;88.40;;;;;;4994158;28;20124;-72
2021/03/13 07:56:40;;;;;;;11.05;2.47;;;8.00;87.70;;;;;;4993452;28;20019;-72
2021/03/13 07:59:09;;;;;;;24.00;7.93;;;8.10;87.80;;;;;;4994292;28;20526;-72
2021/03/13 08:01:51;;;;;;;9.95;2.00;;;8.00;87.20;;;;;;4994518;28;20025;-72
2021/03/13 08:04:43;;;;;;;12.25;3.38;;;8.00;87.20;;;;;;4993071;28;20560;-73
2021/03/13 08:07:09;;;;;;;18.67;5.97;;;8.00;87.60;;;;;;4986693;28;20038;-72
2021/03/13 08:09:45;;;;;;;13.32;5.93;;;8.00;87.20;;;;;;4994576;28;20113;-72
2021/03/13 08:12:11;;;;;;;13.65;3.35;;;8.10;87.10;;;;;;4993433;28;20057;-73
2021/03/13 08:14:37;;;;;;;10.43;2.42;;;8.30;86.60;;;;;;4994506;28;20027;-73
2021/03/13 08:17:08;;;;;;;17.95;3.65;;;8.30;86.30;;;;;;4994243;28;20045;-72
2021/03/13 08:19:44;;;;;;;14.02;4.20;;;8.40;86.60;;;;;;4994079;28;20046;-74
2021/03/13 08:22:17;;;;;;;16.80;6.35;;;8.40;86.00;;;;;;4991799;28;20033;-73
2021/03/13 08:24:46;;;;;;;10.18;2.60;;;8.50;85.70;;;;;;4993393;28;20052;-73
2021/03/13 08:27:13;;;;;;;15.88;3.67;;;8.70;85.30;;;;;;4993026;28;20030;-73
2021/03/13 08:29:51;;;;;;;12.88;3.60;;;8.90;84.50;;;;;;4993986;28;20105;-73
2021/03/13 08:32:37;;;;;;;18.55;6.40;;;9.10;83.50;;;;;;4992183;28;20088;-73
2021/03/13 08:35:07;;;;;;;18.25;6.03;;;9.20;83.10;;;;;;4993217;28;20026;-71
2021/03/13 08:37:46;;;;;;;12.48;3.92;;;9.20;83.00;;;;;;4989121;28;20038;-72
2021/03/13 08:40:23;;;;;;;12.73;3.47;;;9.10;82.90;;;;;;4991885;28;20033;-71
2021/03/13 08:42:49;;;;;;;17.80;2.90;;;8.90;84.30;;;;;;4992812;28;20046;-71
2021/03/13 08:45:17;;;;;;;14.75;4.63;;;8.80;85.20;;;;;;4993517;28;20027;-73
2021/03/13 08:47:52;;;;;;;8.15;2.83;;;8.70;86.40;;;;;;4993000;28;20089;-73
2021/03/13 08:50:45;;;;;;;13.93;2.90;;;8.60;87.30;;;;;;4993519;28;20030;-73
2021/03/13 08:53:30;;;;;;;19.02;4.95;;;8.60;87.50;;;;;;4992577;28;20065;-73
2021/03/13 08:55:56;;;;;;;16.02;8.23;;;8.70;88.00;;;;;;4992574;28;20061;-74
2021/03/13 08:58:44;;;;;;;15.27;7.60;;;8.70;86.90;;;;;;4993298;28;20621;-72
2021/03/13 09:01:16;;;;;;;16.27;3.30;;;8.80;86.50;;;;;;4992936;28;20438;-73
2021/03/13 09:03:52;;;;;;;15.32;7.15;;;8.90;85.80;;;;;;4993518;28;20037;-73
2021/03/13 09:06:21;;;;;;;20.30;13.52;;;8.80;84.80;;;;;;4992175;28;20038;-73
2021/03/13 09:08:48;;;;;;;14.05;3.20;;;8.70;84.00;;;;;;4992430;28;20029;-74
2021/03/13 09:11:26;;;;;;;16.90;6.82;;;8.60;84.50;;;;;;4992107;28;20033;-73
2021/03/13 09:14:04;;;;;;;14.90;3.22;;;8.70;85.20;;;;;;4991680;28;20034;-75
2021/03/13 09:16:39;;;;;;;13.82;2.70;;;8.70;85.10;;;;;;4992323;28;20081;-73
2021/03/13 09:19:08;;;;;;;13.00;3.50;;;8.70;84.40;;;;;;4991921;28;20474;-74
2021/03/13 09:21:43;;;;;;;14.70;3.08;;;8.70;84.50;;;;;;4992873;28;20022;-75
2021/03/13 09:24:20;;;;;;;15.00;2.80;;;8.80;84.40;;;;;;4992611;28;20034;-74
2021/03/13 09:26:58;;;;;;;14.35;3.10;;;8.90;83.50;;;;;;4991720;28;20041;-74
2021/03/13 09:29:27;;;;;;;18.08;4.22;;;8.90;82.80;;;;;;4990637;28;20058;-76
2021/03/13 09:32:10;;;;;;;21.33;4.50;;;9.00;81.80;;;;;;4991764;28;20030;-73
2021/03/13 09:34:41;;;;;;;17.38;3.88;;;9.00;81.80;;;;;;4992934;28;20092;-74
2021/03/13 09:37:23;;;;;;;18.05;5.22;;;9.00;82.00;;;;;;4992321;28;20022;-75
2021/03/13 09:39:58;;;;;;;19.92;4.20;;;9.10;82.50;;;;;;4991287;28;20122;-74
2021/03/13 09:42:25;;;;;;;17.70;4.50;;;9.10;83.10;;;;;;4992649;28;20467;-73
2021/03/13 09:44:55;;;;;;;23.55;5.28;;;9.10;84.00;;;;;;4990878;28;20022;-72
2021/03/13 09:47:27;;;;;;;18.83;5.65;;;9.10;84.30;;;;;;4991506;28;20034;-71
2021/03/13 09:49:57;;;;;;;14.75;3.95;;;9.10;83.90;;;;;;4991555;28;20018;-74
2021/03/13 09:52:34;;;;;;;14.43;3.33;;;9.10;84.00;;;;;;4991337;28;20546;-74
2021/03/13 09:55:02;;;;;;;23.67;8.05;;;9.20;83.50;;;;;;4992862;28;20026;-72
2021/03/13 09:57:28;;;;;;;21.20;5.80;;;9.30;83.10;;;;;;4991970;28;20042;-72
2021/03/13 09:59:54;;;;;;;14.50;3.45;;;9.40;82.80;;;;;;4991906;28;20395;-72
2021/03/13 10:02:21;;;;;;;13.95;3.25;;;9.40;82.50;;;;;;4990973;28;20077;-73
2021/03/13 10:04:49;;;;;;;17.55;3.72;;;9.40;82.60;;;;;;4991330;28;20032;-71
2021/03/13 10:07:15;;;;;;;16.00;3.80;;;9.20;83.10;;;;;;4990972;28;20022;-72
2021/03/13 10:09:51;;;;;;;10.27;3.25;;;9.10;83.70;;;;;;4994110;28;20025;-74
2021/03/13 10:12:23;;;;;;;13.38;3.35;;;8.90;84.30;;;;;;4995465;28;20038;-72
2021/03/13 10:14:49;;;;;;;13.15;2.88;;;8.60;86.50;;;;;;4994992;28;20026;-72
2021/03/13 10:17:15;;;;;;;9.75;2.33;;;8.30;88.30;;;;;;4994492;28;20491;-72
2021/03/13 10:19:42;;;;;;;14.70;4.15;;;7.90;89.90;;;;;;5011041;28;20479;-72
2021/03/13 10:22:15;;;;;;;13.07;3.00;;;7.70;90.30;;;;;;4996244;28;20068;-72
2021/03/13 10:24:42;;;;;;;11.43;3.65;;;7.60;90.60;;;;;;4995993;28;20037;-72
2021/03/13 10:27:08;;;;;;;15.57;4.05;;;7.40;91.00;;;;;;5002103;28;20096;-72
2021/03/13 10:29:34;;;;;;;22.15;4.35;;;7.40;91.50;;;;;;4999382;28;20030;-73
2021/03/13 10:32:03;;;;;;;17.20;3.90;;;7.40;91.60;;;;;;4993330;28;20026;-73
2021/03/13 10:34:36;;;;;;;19.02;3.80;;;7.50;91.80;;;;;;4992776;28;20410;-74
2021/03/13 10:37:02;;;;;;;18.33;3.97;;;7.60;91.80;;;;;;4991746;28;20018;-72
2021/03/13 10:39:28;;;;;;;23.67;10.98;;;7.70;91.80;;;;;;4995595;28;20394;-72
2021/03/13 10:42:00;;;;;;;27.95;10.05;;;7.80;91.60;;;;;;4994255;28;20022;-73
2021/03/13 10:44:26;;;;;;;12.93;3.22;;;7.90;91.30;;;;;;4994461;28;20034;-73
2021/03/13 10:46:52;;;;;;;23.33;7.88;;;7.90;91.20;;;;;;4994010;28;20027;-72
2021/03/13 10:49:26;;;;;;;22.75;6.25;;;7.80;91.10;;;;;;4994250;28;20030;-72
2021/03/13 10:51:53;;;;;;;21.73;4.70;;;7.80;90.80;;;;;;4994459;28;20096;-73
2021/03/13 10:54:24;;;;;;;23.88;3.90;;;7.70;90.50;;;;;;4992453;28;20486;-73
2021/03/13 10:56:51;;;;;;;23.58;4.68;;;7.70;90.50;;;;;;4976245;28;20023;-72
2021/03/13 10:59:29;;;;;;;29.27;9.02;;;7.80;90.70;;;;;;4975488;28;20050;-73
2021/03/13 11:01:54;;;;;;;26.20;8.82;;;7.90;90.90;;;;;;4995028;28;20019;-73
2021/03/13 11:04:20;;;;;;;19.60;6.80;;;8.00;90.20;;;;;;4995448;28;20379;-74
2021/03/13 11:06:53;;;;;;;17.25;4.40;;;8.10;90.00;;;;;;4994258;28;20061;-73
2021/03/13 11:09:18;;;;;;;32.00;4.72;;;8.20;90.00;;;;;;4993311;28;20034;-72
2021/03/13 11:11:44;;;;;;;35.08;10.85;;;8.30;89.90;;;;;;4994138;28;20076;-72
2021/03/13 11:14:10;;;;;;;60.10;22.05;;;8.40;89.60;;;;;;4993910;28;20372;-72
2021/03/13 11:16:37;;;;;;;23.55;5.97;;;8.70;87.80;;;;;;4994675;28;20466;-72
2021/03/13 11:19:03;;;;;;;27.42;6.63;;;8.80;86.70;;;;;;4995400;28;20026;-71
2021/03/13 11:21:29;;;;;;;22.85;9.23;;;9.00;86.50;;;;;;4993650;28;20399;-72
2021/03/13 11:23:55;;;;;;;19.48;3.97;;;9.30;85.40;;;;;;4994605;28;20026;-72
2021/03/13 11:26:22;;;;;;;23.80;7.72;;;9.50;84.30;;;;;;4993573;28;20387;-73
2021/03/13 11:28:48;;;;;;;18.40;5.07;;;9.70;82.30;;;;;;4995207;28;20522;-73
2021/03/13 11:31:14;;;;;;;14.75;3.72;;;9.90;80.80;;;;;;4994690;28;20018;-74
2021/03/13 11:33:41;;;;;;;35.10;16.88;;;10.10;80.70;;;;;;4994668;28;20031;-72
2021/03/13 11:36:08;;;;;;;17.05;3.88;;;10.20;77.70;;;;;;4992980;28;20025;-72
2021/03/13 11:38:35;;;;;;;20.77;5.88;;;10.00;76.40;;;;;;4994642;28;20122;-74
2021/03/13 11:41:02;;;;;;;20.27;3.88;;;9.90;77.30;;;;;;4986038;28;20084;-72
2021/03/13 11:43:29;;;;;;;16.83;5.75;;;9.80;78.80;;;;;;4999361;28;20410;-73
2021/03/13 11:45:58;;;;;;;14.68;5.63;;;9.70;80.70;;;;;;4994086;28;20126;-73
2021/03/13 11:48:24;;;;;;;15.43;3.53;;;9.70;80.80;;;;;;4993063;28;20050;-75
2021/03/13 11:50:50;;;;;;;20.83;6.82;;;9.80;81.70;;;;;;4992786;28;21598;-73
2021/03/13 11:53:18;;;;;;;12.57;3.50;;;10.00;81.10;;;;;;4992704;28;20419;-74
2021/03/13 11:55:44;;;;;;;14.18;3.80;;;10.30;80.80;;;;;;4994116;28;20023;-70
2021/03/13 11:58:11;;;;;;;12.27;3.53;;;10.60;80.10;;;;;;4992359;28;20045;-78
2021/03/13 12:00:37;;;;;;;13.82;3.80;;;10.80;78.90;;;;;;4989868;28;20045;-75
2021/03/13 12:03:03;;;;;;;13.95;4.00;;;10.70;78.60;;;;;;4991713;28;20114;-77
2021/03/13 12:05:29;;;;;;;10.73;4.20;;;10.70;79.00;;;;;;4992634;28;20014;-72
2021/03/13 12:07:56;;;;;;;14.75;3.70;;;10.60;79.00;;;;;;4992829;28;20061;-73
2021/03/13 12:10:22;;;;;;;11.45;2.92;;;10.60;79.20;;;;;;4976852;28;20037;-82
2021/03/13 12:12:47;;;;;;;19.38;3.83;;;10.60;79.00;;;;;;4988574;28;20117;-79
2021/03/13 12:15:13;;;;;;;11.20;3.15;;;10.60;77.90;;;;;;4994232;28;20526;-74
2021/03/13 12:17:39;;;;;;;18.40;6.57;;;10.50;77.80;;;;;;4991842;28;20053;-72
2021/03/13 12:20:07;;;;;;;14.00;5.57;;;10.40;77.50;;;;;;4992676;28;20034;-72
2021/03/13 12:22:33;;;;;;;21.42;5.32;;;10.20;79.30;;;;;;4992353;28;20038;-71
2021/03/13 12:24:59;;;;;;;26.95;10.60;;;10.10;79.80;;;;;;4993334;28;20015;-72
2021/03/13 12:27:25;;;;;;;16.13;6.35;;;9.80;81.40;;;;;;4991241;28;20077;-70
2021/03/13 12:29:51;;;;;;;22.00;7.60;;;9.50;82.00;;;;;;4993277;28;20081;-71
2021/03/13 12:32:18;;;;;;;13.63;6.22;;;9.10;83.30;;;;;;4991550;28;20452;-69
2021/03/13 12:34:44;;;;;;;9.65;1.98;;;8.80;84.90;;;;;;4993121;28;20364;-71
2021/03/13 12:37:10;;;;;;;13.70;7.75;;;8.50;86.80;;;;;;5009294;28;20026;-83
2021/03/13 12:39:36;;;;;;;38.92;17.17;;;8.50;86.20;;;;;;4992103;28;20144;-84
2021/03/13 12:42:02;;;;;;;13.52;2.92;;;8.40;86.20;;;;;;4990761;28;20065;-86
2021/03/13 12:44:29;;;;;;;9.10;2.80;;;8.40;86.50;;;;;;4991862;28;20069;-85
2021/03/13 12:46:54;;;;;;;12.77;2.38;;;8.40;87.70;;;;;;4991056;28;20027;-83
2021/03/13 12:49:20;;;;;;;24.55;11.65;;;8.50;88.30;;;;;;4993041;28;20033;-82
2021/03/13 12:51:46;;;;;;;12.00;2.10;;;8.60;87.90;;;;;;4991624;28;20061;-80
2021/03/13 12:54:12;;;;;;;20.35;12.27;;;8.70;87.50;;;;;;4991795;28;20078;-88
2021/03/13 12:56:37;;;;;;;13.38;2.78;;;8.80;87.00;;;;;;4992530;28;20022;-80
2021/03/13 12:59:03;;;;;;;11.55;3.00;;;9.00;86.20;;;;;;4991974;28;20026;-78